CheckWX is a tool to help pilots better visualize weather data.  It is not intended as a substitute for an official pre-flight weather briefing.

17:21:53 UTC

KSDL METAR
Scottsdale Airport
Scottsdale, Arizona, USA
Current

29 mins ago

KSDL 191653Z 18006KT 10SM CLR 31/08 A2985 RMK AO2 SLP080 T03110083
Observed
Sep-19 @ 16:53 UTC
Wind
  • 180° at 6 KTS
Visibility
10 SM
Flight Rules
VFR
Cloud Levels
  • Clear skies
Temperature
31°C / 88°F
Dewpoint
C / 46°F
Humidity
24%
Altimeter
29.85" Hg
Pressure
1010.82 hPa
Previous

1 hour ago

KSDL 191553Z 13006KT 10SM CLR 29/08 A2985 RMK AO2 SLP080 T02940083
Observed
Sep-19 @ 15:53 UTC
Wind
  • 130° at 6 KTS
Visibility
10 SM
Flight Rules
VFR
Cloud Levels
  • Clear skies
Temperature
29°C / 84°F
Dewpoint
C / 46°F
Humidity
27%
Altimeter
29.85" Hg
Pressure
1010.82 hPa
Previous

2 hours ago

KSDL 191453Z 16003KT 10SM CLR 28/10 A2985 RMK AO2 SLP080 T02780100 53010
Observed
Sep-19 @ 14:53 UTC
Wind
  • 160° at 3 KTS
Visibility
10 SM
Flight Rules
VFR
Cloud Levels
  • Clear skies
Temperature
28°C / 82°F
Dewpoint
10°C / 50°F
Humidity
32%
Altimeter
29.85" Hg
Pressure
1010.82 hPa